Time,TemperatureF,DewpointF,PressureIn,WindDirection,WindDirectionDegrees,WindSpeedMPH,WindSpeedGustMPH,Humidity,HourlyPrecipIn,Conditions,Clouds,dailyrainin,SoftwareType,DateUTC
2013-06-25 00:03:00,53.8,43.9,29.85,North,0,0.0,0.0,69,0.00,,SKC,0.00,VWS V13.00,2013-06-25 06:03:00,
2013-06-25 00:08:00,53.6,43.7,29.85,North,0,0.0,0.0,69,0.00,,SKC,0.00,VWS V13.00,2013-06-25 06:08:00,
2013-06-25 00:13:00,53.2,42.6,29.85,North,0,0.0,0.0,67,0.00,,SKC,0.00,VWS V13.00,2013-06-25 06:13:00,
2013-06-25 00:18:00,53.1,42.4,29.85,North,0,0.0,0.0,67,0.00,,SKC,0.00,VWS V13.00,2013-06-25 06:18:00,
2013-06-25 00:23:00,53.1,42.8,29.85,North,0,0.0,0.0,68,0.00,,SKC,0.00,VWS V13.00,2013-06-25 06:23:00,
2013-06-25 00:28:00,53.1,43.2,29.85,North,0,0.0,0.0,69,0.00,,SKC,0.00,VWS V13.00,2013-06-25 06:28:00,
2013-06-25 00:33:00,53.1,43.5,29.85,North,0,0.0,0.0,70,0.00,,SKC,0.00,VWS V13.00,2013-06-25 06:33:00,
2013-06-25 00:38:00,52.9,43.4,29.85,North,0,0.0,0.0,70,0.00,,SKC,0.00,VWS V13.00,2013-06-25 06:38:00,
2013-06-25 00:43:00,52.5,42.7,29.85,North,0,0.0,0.0,69,0.00,,SKC,0.00,VWS V13.00,2013-06-25 06:43:00,
2013-06-25 00:48:00,52.3,42.5,29.85,North,0,0.0,0.0,69,0.00,,SKC,0.00,VWS V13.00,2013-06-25 06:48:00,
2013-06-25 00:53:00,52.2,42.7,29.85,North,0,0.0,0.0,70,0.00,,SKC,0.00,VWS V13.00,2013-06-25 06:53:00,
2013-06-25 00:58:00,51.8,42.3,29.85,North,0,0.0,0.0,70,0.00,,SKC,0.00,VWS V13.00,2013-06-25 06:58:00,
2013-06-25 01:03:00,51.6,42.2,29.85,North,0,0.0,0.0,70,0.00,,SKC,0.00,VWS V13.00,2013-06-25 07:03:00,
2013-06-25 01:08:00,51.3,41.8,29.85,North,0,0.0,0.0,70,0.00,,SKC,0.00,VWS V13.00,2013-06-25 07:08:00,
2013-06-25 01:13:00,51.1,41.7,29.85,North,0,0.0,0.0,70,0.00,,SKC,0.00,VWS V13.00,2013-06-25 07:13:00,
2013-06-25 01:19:00,50.7,41.7,29.85,North,0,0.0,0.0,71,0.00,,SKC,0.00,VWS V13.00,2013-06-25 07:19:00,
2013-06-25 01:24:00,50.5,41.5,29.85,North,0,0.0,0.0,71,0.00,,SKC,0.00,VWS V13.00,2013-06-25 07:24:00,
2013-06-25 01:29:00,50.4,41.7,29.85,North,0,0.0,0.0,72,0.00,,SKC,0.00,VWS V13.00,2013-06-25 07:29:00,
2013-06-25 01:34:00,50.2,41.5,29.85,North,0,0.0,0.0,72,0.00,,SKC,0.00,VWS V13.00,2013-06-25 07:34:00,
2013-06-25 01:39:00,50.0,41.3,29.85,North,0,0.0,0.0,72,0.00,,SKC,0.00,VWS V13.00,2013-06-25 07:39:00,
2013-06-25 01:44:00,49.8,41.5,29.85,North,0,0.0,0.0,73,0.00,,SKC,0.00,VWS V13.00,2013-06-25 07:44:00,
2013-06-25 01:49:00,49.6,41.3,29.85,North,0,0.0,0.0,73,0.00,,SKC,0.00,VWS V13.00,2013-06-25 07:49:00,
2013-06-25 01:54:00,49.3,41.0,29.85,North,0,0.0,0.0,73,0.00,,SKC,0.00,VWS V13.00,2013-06-25 07:54:00,
2013-06-25 01:59:00,49.1,41.2,29.85,North,0,0.0,0.0,74,0.00,,SKC,0.00,VWS V13.00,2013-06-25 07:59:00,
2013-06-25 02:04:00,48.9,41.0,29.85,North,0,0.0,0.0,74,0.00,,SKC,0.00,VWS V13.00,2013-06-25 08:04:00,
2013-06-25 02:09:00,48.9,41.4,29.85,North,0,0.0,0.0,75,0.00,,SKC,0.00,VWS V13.00,2013-06-25 08:09:00,
2013-06-25 02:14:00,48.7,41.2,29.85,North,0,0.0,0.0,75,0.00,,SKC,0.00,VWS V13.00,2013-06-25 08:14:00,
2013-06-25 02:19:00,48.7,41.2,29.85,North,0,0.0,0.0,75,0.00,,SKC,0.00,VWS V13.00,2013-06-25 08:19:00,
2013-06-25 02:24:00,48.6,41.0,29.85,North,0,0.0,0.0,75,0.00,,SKC,0.00,VWS V13.00,2013-06-25 08:24:00,
2013-06-25 02:29:00,48.4,40.8,29.85,North,0,0.0,0.0,75,0.00,,SKC,0.00,VWS V13.00,2013-06-25 08:29:00,
2013-06-25 02:34:00,48.4,40.8,29.85,North,0,0.0,0.0,75,0.00,,SKC,0.00,VWS V13.00,2013-06-25 08:34:00,
2013-06-25 02:39:00,48.2,40.7,29.85,North,0,0.0,0.0,75,0.00,,SKC,0.00,VWS V13.00,2013-06-25 08:39:00,
2013-06-25 02:44:00,48.0,40.5,29.85,North,0,0.0,0.0,75,0.00,,SKC,0.00,VWS V13.00,2013-06-25 08:44:00,
2013-06-25 02:49:00,47.8,40.3,29.85,North,0,0.0,0.0,75,0.00,,SKC,0.00,VWS V13.00,2013-06-25 08:49:00,
2013-06-25 02:54:00,47.8,40.7,29.85,North,0,0.0,0.0,76,0.00,,SKC,0.00,VWS V13.00,2013-06-25 08:54:00,
2013-06-25 02:59:00,47.8,40.7,29.85,North,0,0.0,0.0,76,0.00,,SKC,0.00,VWS V13.00,2013-06-25 08:59:00,
2013-06-25 03:04:00,47.8,40.7,29.85,North,0,0.0,0.0,76,0.00,,SKC,0.00,VWS V13.00,2013-06-25 09:04:00,
2013-06-25 03:09:00,48.0,40.8,29.85,North,0,0.0,0.0,76,0.00,,SKC,0.00,VWS V13.00,2013-06-25 09:09:00,
2013-06-25 03:14:00,47.8,40.7,29.85,North,0,0.0,0.0,76,0.00,,SKC,0.00,VWS V13.00,2013-06-25 09:14:00,
2013-06-25 03:20:00,47.8,40.7,29.85,North,0,0.0,0.0,76,0.00,,SKC,0.00,VWS V13.00,2013-06-25 09:20:00,
2013-06-25 03:25:00,47.8,41.0,29.85,North,0,0.0,0.0,77,0.00,,SKC,0.00,VWS V13.00,2013-06-25 09:25:00,
2013-06-25 03:30:00,47.8,41.0,29.85,North,0,0.0,0.0,77,0.00,,SKC,0.00,VWS V13.00,2013-06-25 09:30:00,
2013-06-25 03:35:00,47.7,40.8,29.85,North,0,0.0,0.0,77,0.00,,SKC,0.00,VWS V13.00,2013-06-25 09:35:00,
2013-06-25 03:40:00,47.5,40.6,29.85,North,0,0.0,0.0,77,0.00,,SKC,0.00,VWS V13.00,2013-06-25 09:40:00,
2013-06-25 03:45:00,47.5,40.6,29.85,North,0,0.0,0.0,77,0.00,,SKC,0.00,VWS V13.00,2013-06-25 09:45:00,
2013-06-25 03:50:00,47.5,40.6,29.85,North,0,0.0,0.0,77,0.00,,SKC,0.00,VWS V13.00,2013-06-25 09:50:00,
2013-06-25 03:55:00,47.7,40.8,29.85,North,0,0.0,0.0,77,0.00,,SKC,0.00,VWS V13.00,2013-06-25 09:55:00,
2013-06-25 04:00:00,47.7,41.2,29.85,North,0,0.0,0.0,78,0.00,,SKC,0.00,VWS V13.00,2013-06-25 10:00:00,
2013-06-25 04:05:00,47.8,41.3,29.85,North,0,0.0,0.0,78,0.00,,SKC,0.00,VWS V13.00,2013-06-25 10:05:00,
2013-06-25 04:10:00,48.0,41.5,29.85,North,0,0.0,0.0,78,0.00,,SKC,0.00,VWS V13.00,2013-06-25 10:10:00,
2013-06-25 04:15:00,48.2,41.7,29.85,North,0,0.0,0.0,78,0.00,,SKC,0.00,VWS V13.00,2013-06-25 10:15:00,
2013-06-25 04:20:00,48.4,41.8,29.85,North,0,0.0,0.0,78,0.00,,SKC,0.00,VWS V13.00,2013-06-25 10:20:00,
2013-06-25 04:25:00,48.4,41.8,29.85,North,0,0.0,0.0,78,0.00,,SKC,0.00,VWS V13.00,2013-06-25 10:25:00,
2013-06-25 04:30:00,48.6,42.0,29.88,North,0,0.0,0.0,78,0.00,,SKC,0.00,VWS V13.00,2013-06-25 10:30:00,
2013-06-25 04:35:00,48.6,41.7,29.88,North,0,0.0,0.0,77,0.00,,SKC,0.00,VWS V13.00,2013-06-25 10:35:00,
2013-06-25 04:40:00,48.6,41.7,29.88,North,0,0.0,0.0,77,0.00,,SKC,0.00,VWS V13.00,2013-06-25 10:40:00,
2013-06-25 04:45:00,48.6,41.7,29.85,North,0,0.0,0.0,77,0.00,,SKC,0.00,VWS V13.00,2013-06-25 10:45:00,
2013-06-25 04:50:00,48.4,41.5,29.85,North,0,0.0,0.0,77,0.00,,SKC,0.00,VWS V13.00,2013-06-25 10:50:00,
2013-06-25 04:55:00,48.4,41.5,29.85,North,0,0.0,0.0,77,0.00,,SKC,0.00,VWS V13.00,2013-06-25 10:55:00,
2013-06-25 05:01:00,48.4,41.5,29.88,North,0,0.0,0.0,77,0.00,,SKC,0.00,VWS V13.00,2013-06-25 11:01:00,
2013-06-25 05:06:00,48.4,41.5,29.88,North,0,0.0,0.0,77,0.00,,SKC,0.00,VWS V13.00,2013-06-25 11:06:00,
2013-06-25 05:11:00,48.6,41.7,29.88,North,0,0.0,0.0,77,0.00,,SKC,0.00,VWS V13.00,2013-06-25 11:11:00,
2013-06-25 05:16:00,48.7,41.9,29.88,North,0,0.0,0.0,77,0.00,,SKC,0.00,VWS V13.00,2013-06-25 11:16:00,
2013-06-25 05:21:00,48.7,42.2,29.88,North,0,0.0,0.0,78,0.00,,SKC,0.00,VWS V13.00,2013-06-25 11:21:00,
2013-06-25 05:26:00,48.9,42.4,29.88,North,0,0.0,0.0,78,0.00,,SKC,0.00,VWS V13.00,2013-06-25 11:26:00,
2013-06-25 05:31:00,49.1,42.9,29.88,North,0,0.0,0.0,79,0.00,,SKC,0.00,VWS V13.00,2013-06-25 11:31:00,
2013-06-25 05:36:00,49.1,42.9,29.88,North,0,0.0,0.0,79,0.00,,SKC,0.00,VWS V13.00,2013-06-25 11:36:00,
2013-06-25 05:41:00,49.3,43.0,29.88,North,0,0.0,0.0,79,0.00,,SKC,0.00,VWS V13.00,2013-06-25 11:41:00,
2013-06-25 05:46:00,49.3,43.0,29.88,North,0,0.0,0.0,79,0.00,,SKC,0.00,VWS V13.00,2013-06-25 11:46:00,
2013-06-25 05:51:00,49.3,43.0,29.88,North,0,0.0,0.0,79,0.00,,SKC,0.00,VWS V13.00,2013-06-25 11:51:00,
2013-06-25 05:56:00,49.3,43.0,29.88,North,0,0.0,0.0,79,0.00,,SKC,0.00,VWS V13.00,2013-06-25 11:56:00,
2013-06-25 06:01:00,49.3,43.0,29.88,North,0,0.0,0.0,79,0.00,,SKC,0.00,VWS V13.00,2013-06-25 12:01:00,
2013-06-25 06:06:00,49.3,43.0,29.88,North,0,0.0,0.0,79,0.00,,SKC,0.00,VWS V13.00,2013-06-25 12:06:00,
2013-06-25 06:11:00,49.5,43.2,29.88,North,0,0.0,0.0,79,0.00,,SKC,0.00,VWS V13.00,2013-06-25 12:11:00,
2013-06-25 06:16:00,49.5,43.2,29.88,North,0,0.0,0.0,79,0.00,,SKC,0.00,VWS V13.00,2013-06-25 12:16:00,
2013-06-25 06:21:00,49.5,43.2,29.88,North,0,0.0,0.0,79,0.00,,SKC,0.00,VWS V13.00,2013-06-25 12:21:00,
2013-06-25 06:26:00,49.5,43.2,29.88,North,0,0.0,0.0,79,0.00,,SKC,0.00,VWS V13.00,2013-06-25 12:26:00,
2013-06-25 06:31:00,49.5,42.9,29.88,North,0,0.0,0.0,78,0.00,,SKC,0.00,VWS V13.00,2013-06-25 12:31:00,
2013-06-25 06:37:00,49.5,42.9,29.88,North,0,0.0,0.0,78,0.00,,SKC,0.00,VWS V13.00,2013-06-25 12:37:00,
2013-06-25 06:42:00,49.5,42.9,29.88,North,0,0.0,0.0,78,0.00,,SKC,0.00,VWS V13.00,2013-06-25 12:42:00,
2013-06-25 06:47:00,49.6,43.1,29.88,North,0,0.0,0.0,78,0.00,,SKC,0.00,VWS V13.00,2013-06-25 12:47:00,
2013-06-25 06:52:00,49.6,43.1,29.88,North,0,0.0,0.0,78,0.00,,SKC,0.00,VWS V13.00,2013-06-25 12:52:00,
2013-06-25 06:57:00,49.8,43.2,29.88,North,0,0.0,0.0,78,0.00,,SKC,0.00,VWS V13.00,2013-06-25 12:57:00,
2013-06-25 07:02:00,49.8,43.2,29.88,North,0,0.0,0.0,78,0.00,,SKC,0.00,VWS V13.00,2013-06-25 13:02:00,
2013-06-25 07:07:00,50.2,43.6,29.88,North,0,0.0,0.0,78,0.00,,SKC,0.00,VWS V13.00,2013-06-25 13:07:00,
2013-06-25 07:12:00,50.4,43.8,29.91,North,0,0.0,0.0,78,0.00,,SKC,0.00,VWS V13.00,2013-06-25 13:12:00,
2013-06-25 07:17:00,50.4,43.8,29.91,North,0,0.0,0.0,78,0.00,,SKC,0.00,VWS V13.00,2013-06-25 13:17:00,
2013-06-25 07:22:00,50.4,43.4,29.91,North,0,0.0,0.0,77,0.00,,SKC,0.00,VWS V13.00,2013-06-25 13:22:00,
2013-06-25 07:27:00,50.4,43.4,29.91,North,0,0.0,0.0,77,0.00,,SKC,0.00,VWS V13.00,2013-06-25 13:27:00,
2013-06-25 07:32:00,50.4,43.4,29.91,North,0,0.0,0.0,77,0.00,,SKC,0.00,VWS V13.00,2013-06-25 13:32:00,
2013-06-25 07:37:00,50.2,42.9,29.91,North,0,0.0,0.0,76,0.00,,SKC,0.00,VWS V13.00,2013-06-25 13:37:00,
2013-06-25 07:42:00,50.4,43.1,29.91,North,0,0.0,0.0,76,0.00,,SKC,0.00,VWS V13.00,2013-06-25 13:42:00,
2013-06-25 07:47:00,50.7,43.4,29.91,North,0,0.0,0.0,76,0.00,,SKC,0.00,VWS V13.00,2013-06-25 13:47:00,
2013-06-25 07:52:00,50.7,43.4,29.91,North,0,0.0,0.0,76,0.00,,SKC,0.00,VWS V13.00,2013-06-25 13:52:00,
2013-06-25 07:57:00,51.1,43.8,29.91,North,0,0.0,0.0,76,0.00,,SKC,0.00,VWS V13.00,2013-06-25 13:57:00,
2013-06-25 08:02:00,51.3,44.0,29.91,North,0,0.0,0.0,76,0.00,,SKC,0.00,VWS V13.00,2013-06-25 14:02:00,
2013-06-25 08:07:00,51.8,44.1,29.91,North,0,0.0,0.0,75,0.00,,SKC,0.00,VWS V13.00,2013-06-25 14:07:00,
2013-06-25 08:12:00,52.0,44.3,29.91,North,0,0.0,0.0,75,0.00,,SKC,0.00,VWS V13.00,2013-06-25 14:12:00,
2013-06-25 08:18:00,52.3,44.3,29.91,North,0,0.0,0.0,74,0.00,,SKC,0.00,VWS V13.00,2013-06-25 14:18:00,
2013-06-25 08:23:00,52.9,44.8,29.91,North,0,0.0,0.0,74,0.00,,SKC,0.00,VWS V13.00,2013-06-25 14:23:00,
2013-06-25 08:28:00,53.1,45.0,29.91,North,0,0.0,0.0,74,0.00,,SKC,0.00,VWS V13.00,2013-06-25 14:28:00,
2013-06-25 08:33:00,53.2,45.2,29.91,North,0,0.0,0.0,74,0.00,,SKC,0.00,VWS V13.00,2013-06-25 14:33:00,
2013-06-25 08:38:00,53.2,44.8,29.91,North,0,0.0,0.0,73,0.00,,SKC,0.00,VWS V13.00,2013-06-25 14:38:00,
2013-06-25 08:43:00,53.4,44.6,29.91,North,0,0.0,0.0,72,0.00,,SKC,0.00,VWS V13.00,2013-06-25 14:43:00,
2013-06-25 08:48:00,53.8,45.0,29.91,North,0,0.0,0.0,72,0.00,,SKC,0.00,VWS V13.00,2013-06-25 14:48:00,
2013-06-25 08:53:00,54.1,45.3,29.91,North,0,0.0,0.0,72,0.00,,SKC,0.00,VWS V13.00,2013-06-25 14:53:00,
2013-06-25 08:58:00,54.5,46.0,29.91,North,0,0.0,0.0,73,0.00,,SKC,0.00,VWS V13.00,2013-06-25 14:58:00,
2013-06-25 09:03:00,55.0,46.5,29.91,North,0,0.0,0.0,73,0.00,,SKC,0.00,VWS V13.00,2013-06-25 15:03:00,
2013-06-25 09:08:00,56.1,46.9,29.91,North,0,0.0,0.0,71,0.00,,SKC,0.00,VWS V13.00,2013-06-25 15:08:00,
2013-06-25 09:13:00,57.2,47.1,29.91,North,0,0.0,0.0,69,0.00,,SKC,0.00,VWS V13.00,2013-06-25 15:13:00,
2013-06-25 09:18:00,58.6,47.7,29.91,North,0,0.0,0.0,67,0.00,,SKC,0.00,VWS V13.00,2013-06-25 15:18:00,
2013-06-25 09:23:00,59.7,46.7,29.91,North,0,0.0,0.0,62,0.00,,SKC,0.00,VWS V13.00,2013-06-25 15:23:00,
2013-06-25 09:28:00,61.0,47.0,29.93,North,0,0.0,0.0,60,0.00,,SKC,0.00,VWS V13.00,2013-06-25 15:28:00,
2013-06-25 09:33:00,61.9,46.0,29.93,North,0,0.0,0.0,56,0.00,,SKC,0.00,VWS V13.00,2013-06-25 15:33:00,
2013-06-25 09:38:00,63.0,44.0,29.93,North,0,0.0,0.0,50,0.00,,SKC,0.00,VWS V13.00,2013-06-25 15:38:00,
2013-06-25 09:43:00,63.5,43.5,29.91,North,0,0.0,0.0,48,0.00,,SKC,0.00,VWS V13.00,2013-06-25 15:43:00,
2013-06-25 09:49:00,64.4,43.8,29.91,North,0,0.0,0.0,47,0.00,,SKC,0.00,VWS V13.00,2013-06-25 15:49:00,
2013-06-25 09:54:00,64.8,44.1,29.91,North,0,0.0,0.0,47,0.00,,SKC,0.00,VWS V13.00,2013-06-25 15:54:00,
2013-06-25 09:59:00,65.1,43.3,29.91,North,0,0.0,0.0,45,0.00,,SKC,0.00,VWS V13.00,2013-06-25 15:59:00,
2013-06-25 10:04:00,65.3,42.8,29.91,North,0,0.0,0.0,44,0.00,,SKC,0.00,VWS V13.00,2013-06-25 16:04:00,
2013-06-25 10:09:00,65.5,42.4,29.91,North,0,0.0,0.0,43,0.00,,SKC,0.00,VWS V13.00,2013-06-25 16:09:00,
2013-06-25 10:14:00,65.8,43.3,29.91,North,0,0.0,0.0,44,0.00,,SKC,0.00,VWS V13.00,2013-06-25 16:14:00,
2013-06-25 10:19:00,66.6,43.4,29.91,North,0,0.0,0.0,43,0.00,,SKC,0.00,VWS V13.00,2013-06-25 16:19:00,
2013-06-25 10:24:00,66.7,44.2,29.91,North,0,0.0,0.0,44,0.00,,SKC,0.00,VWS V13.00,2013-06-25 16:24:00,
2013-06-25 10:29:00,66.7,43.5,29.93,North,0,0.0,0.0,43,0.00,,SKC,0.00,VWS V13.00,2013-06-25 16:29:00,
2013-06-25 10:34:00,66.6,43.4,29.93,North,0,0.0,0.0,43,0.00,,SKC,0.00,VWS V13.00,2013-06-25 16:34:00,
2013-06-25 10:39:00,66.2,43.1,29.93,North,0,0.0,0.0,43,0.00,,SKC,0.00,VWS V13.00,2013-06-25 16:39:00,
2013-06-25 10:44:00,66.0,42.9,29.93,North,0,0.0,0.0,43,0.00,,SKC,0.00,VWS V13.00,2013-06-25 16:44:00,
2013-06-25 10:49:00,66.4,42.6,29.93,North,0,0.0,0.0,42,0.00,,SKC,0.00,VWS V13.00,2013-06-25 16:49:00,
2013-06-25 10:54:00,66.2,43.1,29.93,North,0,0.0,0.0,43,0.00,,SKC,0.00,VWS V13.00,2013-06-25 16:54:00,
2013-06-25 10:59:00,66.7,43.5,29.93,North,0,0.0,0.0,43,0.00,,SKC,0.00,VWS V13.00,2013-06-25 16:59:00,
2013-06-25 11:04:00,67.1,41.3,29.93,North,0,0.0,0.0,39,0.00,,SKC,0.00,VWS V13.00,2013-06-25 17:04:00,
2013-06-25 11:09:00,67.3,42.8,29.93,North,0,0.0,0.0,41,0.00,,SKC,0.00,VWS V13.00,2013-06-25 17:09:00,
2013-06-25 11:14:00,67.5,45.4,29.93,North,0,0.0,0.0,45,0.00,,SKC,0.00,VWS V13.00,2013-06-25 17:14:00,
2013-06-25 11:19:00,68.2,44.9,29.93,North,0,0.0,0.0,43,0.00,,SKC,0.00,VWS V13.00,2013-06-25 17:19:00,
2013-06-25 11:24:00,68.5,43.3,29.93,North,0,0.0,0.0,40,0.00,,SKC,0.00,VWS V13.00,2013-06-25 17:24:00,
2013-06-25 11:29:00,68.2,39.5,29.93,North,0,0.0,0.0,35,0.00,,SKC,0.00,VWS V13.00,2013-06-25 17:29:00,
2013-06-25 11:34:00,68.5,42.6,29.93,North,0,0.0,0.0,39,0.00,,SKC,0.00,VWS V13.00,2013-06-25 17:34:00,
2013-06-25 11:39:00,69.3,39.7,29.93,North,0,0.0,0.0,34,0.00,,SKC,0.00,VWS V13.00,2013-06-25 17:39:00,
2013-06-25 11:44:00,69.6,40.0,29.93,North,0,0.0,0.0,34,0.00,,SKC,0.00,VWS V13.00,2013-06-25 17:44:00,
2013-06-25 11:49:00,69.4,39.9,29.93,North,0,0.0,0.0,34,0.00,,SKC,0.00,VWS V13.00,2013-06-25 17:49:00,
2013-06-25 11:54:00,68.9,39.4,29.93,North,0,0.0,0.0,34,0.00,,SKC,0.00,VWS V13.00,2013-06-25 17:54:00,
2013-06-25 11:59:00,68.9,40.2,29.93,North,0,0.0,0.0,35,0.00,,SKC,0.00,VWS V13.00,2013-06-25 17:59:00,
2013-06-25 12:04:00,69.4,39.9,29.93,North,0,0.0,0.0,34,0.00,,SKC,0.00,VWS V13.00,2013-06-25 18:04:00,
2013-06-25 12:10:00,69.4,39.9,29.93,North,0,0.0,0.0,34,0.00,,SKC,0.00,VWS V13.00,2013-06-25 18:10:00,
2013-06-25 12:15:00,69.1,39.6,29.93,North,0,0.0,0.0,34,0.00,,SKC,0.00,VWS V13.00,2013-06-25 18:15:00,
2013-06-25 12:20:00,69.6,40.0,29.93,North,0,0.0,0.0,34,0.00,,SKC,0.00,VWS V13.00,2013-06-25 18:20:00,
2013-06-25 12:25:00,69.8,39.4,29.93,North,0,0.0,0.0,33,0.00,,SKC,0.00,VWS V13.00,2013-06-25 18:25:00,
2013-06-25 12:30:00,69.6,39.3,29.93,North,0,0.0,0.0,33,0.00,,SKC,0.00,VWS V13.00,2013-06-25 18:30:00,
2013-06-25 12:35:00,69.6,39.3,29.93,North,0,0.0,0.0,33,0.00,,SKC,0.00,VWS V13.00,2013-06-25 18:35:00,
2013-06-25 12:40:00,70.7,40.2,29.93,North,0,0.0,0.0,33,0.00,,SKC,0.00,VWS V13.00,2013-06-25 18:40:00,
2013-06-25 12:45:00,71.8,41.2,29.93,North,0,0.0,0.0,33,0.00,,SKC,0.00,VWS V13.00,2013-06-25 18:45:00,
2013-06-25 12:50:00,72.5,41.0,29.93,North,0,0.0,0.0,32,0.00,,SKC,0.00,VWS V13.00,2013-06-25 18:50:00,
2013-06-25 12:55:00,72.1,40.7,29.93,North,0,0.0,0.0,32,0.00,,SKC,0.00,VWS V13.00,2013-06-25 18:55:00,
2013-06-25 13:00:00,71.6,40.2,29.93,North,0,0.0,0.0,32,0.00,,SKC,0.00,VWS V13.00,2013-06-25 19:00:00,
2013-06-25 13:05:00,71.6,40.2,29.93,North,0,0.0,0.0,32,0.00,,SKC,0.00,VWS V13.00,2013-06-25 19:05:00,
2013-06-25 13:10:00,70.9,39.6,29.93,North,0,0.0,0.0,32,0.00,,SKC,0.00,VWS V13.00,2013-06-25 19:10:00,
2013-06-25 13:15:00,71.1,39.7,29.93,North,0,0.0,0.0,32,0.00,,SKC,0.00,VWS V13.00,2013-06-25 19:15:00,
2013-06-25 13:20:00,70.7,39.4,29.93,North,0,0.0,0.0,32,0.00,,SKC,0.00,VWS V13.00,2013-06-25 19:20:00,
2013-06-25 13:25:00,70.5,40.8,29.93,North,0,0.0,0.0,34,0.00,,SKC,0.00,VWS V13.00,2013-06-25 19:25:00,
2013-06-25 13:30:00,70.2,39.7,29.93,North,0,0.0,0.0,33,0.00,,SKC,0.00,VWS V13.00,2013-06-25 19:30:00,
2013-06-25 13:35:00,70.3,40.7,29.93,North,0,0.0,0.0,34,0.00,,SKC,0.00,VWS V13.00,2013-06-25 19:35:00,
2013-06-25 13:41:00,71.1,42.0,29.93,North,0,0.0,0.0,35,0.00,,SKC,0.00,VWS V13.00,2013-06-25 19:41:00,
2013-06-25 13:46:00,70.9,40.4,29.93,North,0,0.0,0.0,33,0.00,,SKC,0.00,VWS V13.00,2013-06-25 19:46:00,
2013-06-25 13:51:00,70.9,39.6,29.93,North,0,0.0,0.0,32,0.00,,SKC,0.00,VWS V13.00,2013-06-25 19:51:00,
2013-06-25 13:56:00,70.9,39.6,29.93,North,0,0.0,0.0,32,0.00,,SKC,0.00,VWS V13.00,2013-06-25 19:56:00,
2013-06-25 14:01:00,71.2,40.7,29.93,North,0,0.0,0.0,33,0.00,,SKC,0.00,VWS V13.00,2013-06-25 20:01:00,
2013-06-25 14:06:00,71.6,40.2,29.93,North,0,0.0,0.0,32,0.00,,SKC,0.00,VWS V13.00,2013-06-25 20:06:00,
2013-06-25 14:11:00,71.4,40.0,29.93,North,0,0.0,0.0,32,0.00,,SKC,0.00,VWS V13.00,2013-06-25 20:11:00,
2013-06-25 14:16:00,71.2,40.7,29.93,North,0,0.0,0.0,33,0.00,,SKC,0.00,VWS V13.00,2013-06-25 20:16:00,
2013-06-25 14:21:00,70.9,39.6,29.93,North,0,0.0,0.0,32,0.00,,SKC,0.00,VWS V13.00,2013-06-25 20:21:00,
2013-06-25 14:26:00,70.7,39.4,29.93,North,0,0.0,0.0,32,0.00,,SKC,0.00,VWS V13.00,2013-06-25 20:26:00,
2013-06-25 14:31:00,71.1,39.7,29.93,North,0,0.0,0.0,32,0.00,,SKC,0.00,VWS V13.00,2013-06-25 20:31:00,
2013-06-25 14:36:00,71.6,40.2,29.93,North,0,0.0,0.0,32,0.00,,SKC,0.00,VWS V13.00,2013-06-25 20:36:00,
2013-06-25 14:41:00,72.1,40.7,29.93,North,0,0.0,0.0,32,0.00,,SKC,0.00,VWS V13.00,2013-06-25 20:41:00,
2013-06-25 14:46:00,72.5,41.0,29.93,North,0,0.0,0.0,32,0.00,,SKC,0.00,VWS V13.00,2013-06-25 20:46:00,
2013-06-25 14:51:00,73.0,43.0,29.93,North,0,0.0,0.0,34,0.00,,SKC,0.00,VWS V13.00,2013-06-25 20:51:00,
2013-06-25 14:56:00,73.2,42.4,29.93,North,0,0.0,0.0,33,0.00,,SKC,0.00,VWS V13.00,2013-06-25 20:56:00,
2013-06-25 15:01:00,73.4,41.8,29.91,North,0,0.0,0.0,32,0.00,,SKC,0.00,VWS V13.00,2013-06-25 21:01:00,
2013-06-25 15:06:00,73.8,42.9,29.91,North,0,0.0,0.0,33,0.00,,SKC,0.00,VWS V13.00,2013-06-25 21:06:00,
2013-06-25 15:11:00,74.1,42.4,29.91,North,0,0.0,0.0,32,0.00,,SKC,0.00,VWS V13.00,2013-06-25 21:11:00,
2013-06-25 15:16:00,74.3,42.6,29.91,North,0,0.0,0.0,32,0.00,,SKC,0.00,VWS V13.00,2013-06-25 21:16:00,
2013-06-25 15:21:00,74.5,41.9,29.91,North,0,0.0,0.0,31,0.00,,SKC,0.00,VWS V13.00,2013-06-25 21:21:00,
2013-06-25 15:26:00,74.8,42.2,29.91,North,0,0.0,0.0,31,0.00,,SKC,0.00,VWS V13.00,2013-06-25 21:26:00,
2013-06-25 15:31:00,75.4,41.8,29.91,North,0,0.0,0.0,30,0.00,,SKC,0.00,VWS V13.00,2013-06-25 21:31:00,
2013-06-25 15:36:00,75.7,43.0,29.91,North,0,0.0,0.0,31,0.00,,SKC,0.00,VWS V13.00,2013-06-25 21:36:00,
2013-06-25 15:42:00,75.9,41.4,29.91,North,0,0.0,0.0,29,0.00,,SKC,0.00,VWS V13.00,2013-06-25 21:42:00,
2013-06-25 15:47:00,76.1,41.6,29.91,North,0,0.0,0.0,29,0.00,,SKC,0.00,VWS V13.00,2013-06-25 21:47:00,
2013-06-25 15:52:00,75.9,39.6,29.91,North,0,0.0,0.0,27,0.00,,SKC,0.00,VWS V13.00,2013-06-25 21:52:00,
2013-06-25 15:57:00,75.9,39.6,29.91,North,0,0.0,0.0,27,0.00,,SKC,0.00,VWS V13.00,2013-06-25 21:57:00,
2013-06-25 16:02:00,75.9,39.6,29.91,North,0,0.0,0.0,27,0.00,,SKC,0.00,VWS V13.00,2013-06-25 22:02:00,
2013-06-25 16:07:00,75.7,41.3,29.91,North,0,0.0,0.0,29,0.00,,SKC,0.00,VWS V13.00,2013-06-25 22:07:00,
2013-06-25 16:12:00,75.6,37.3,29.91,North,0,0.0,0.0,25,0.00,,SKC,0.00,VWS V13.00,2013-06-25 22:12:00,
2013-06-25 16:17:00,75.6,41.1,29.91,North,0,0.0,0.0,29,0.00,,SKC,0.00,VWS V13.00,2013-06-25 22:17:00,
2013-06-25 16:22:00,76.1,40.7,29.91,North,0,0.0,0.0,28,0.00,,SKC,0.00,VWS V13.00,2013-06-25 22:22:00,
2013-06-25 16:27:00,76.6,41.1,29.91,North,0,0.0,0.0,28,0.00,,SKC,0.00,VWS V13.00,2013-06-25 22:27:00,
2013-06-25 16:32:00,76.6,39.2,29.91,North,0,0.0,0.0,26,0.00,,SKC,0.00,VWS V13.00,2013-06-25 22:32:00,
2013-06-25 16:37:00,76.6,38.2,29.91,North,0,0.0,0.0,25,0.00,,SKC,0.00,VWS V13.00,2013-06-25 22:37:00,
2013-06-25 16:42:00,76.6,39.2,29.91,North,0,0.0,0.0,26,0.00,,SKC,0.00,VWS V13.00,2013-06-25 22:42:00,
2013-06-25 16:47:00,76.5,41.0,29.91,North,0,0.0,0.0,28,0.00,,SKC,0.00,VWS V13.00,2013-06-25 22:47:00,
2013-06-25 16:52:00,76.3,37.9,29.91,North,0,0.0,0.0,25,0.00,,SKC,0.00,VWS V13.00,2013-06-25 22:52:00,
2013-06-25 16:57:00,75.9,39.6,29.91,North,0,0.0,0.0,27,0.00,,SKC,0.00,VWS V13.00,2013-06-25 22:57:00,
2013-06-25 17:02:00,76.1,38.8,29.91,North,0,0.0,0.0,26,0.00,,SKC,0.00,VWS V13.00,2013-06-25 23:02:00,
2013-06-25 17:07:00,76.1,38.8,29.91,North,0,0.0,0.0,26,0.00,,SKC,0.00,VWS V13.00,2013-06-25 23:07:00,
2013-06-25 17:12:00,76.3,38.9,29.91,North,0,0.0,0.0,26,0.00,,SKC,0.00,VWS V13.00,2013-06-25 23:12:00,
2013-06-25 17:17:00,76.3,38.9,29.91,North,0,0.0,0.0,26,0.00,,SKC,0.00,VWS V13.00,2013-06-25 23:17:00,
2013-06-25 17:22:00,76.1,37.8,29.91,North,0,0.0,0.0,25,0.00,,SKC,0.00,VWS V13.00,2013-06-25 23:22:00,
2013-06-25 17:27:00,75.7,37.5,29.91,North,0,0.0,0.0,25,0.00,,SKC,0.00,VWS V13.00,2013-06-25 23:27:00,
2013-06-25 17:32:00,75.7,38.5,29.91,North,0,0.0,0.0,26,0.00,,SKC,0.00,VWS V13.00,2013-06-25 23:32:00,
2013-06-25 17:37:00,75.4,37.2,29.91,North,0,0.0,0.0,25,0.00,,SKC,0.00,VWS V13.00,2013-06-25 23:37:00,
2013-06-25 17:43:00,75.2,38.0,29.91,North,0,0.0,0.0,26,0.00,,SKC,0.00,VWS V13.00,2013-06-25 23:43:00,
2013-06-25 17:48:00,75.0,37.8,29.91,North,0,0.0,0.0,26,0.00,,SKC,0.00,VWS V13.00,2013-06-25 23:48:00,
2013-06-25 17:53:00,75.2,38.0,29.91,North,0,0.0,0.0,26,0.00,,SKC,0.00,VWS V13.00,2013-06-25 23:53:00,
2013-06-25 17:58:00,75.2,38.0,29.91,North,0,0.0,0.0,26,0.00,,SKC,0.00,VWS V13.00,2013-06-25 23:58:00,
2013-06-25 18:03:00,75.4,39.1,29.91,North,0,0.0,0.0,27,0.00,,SKC,0.00,VWS V13.00,2013-06-26 00:03:00,
2013-06-25 18:08:00,75.0,37.8,29.91,North,0,0.0,0.0,26,0.00,,SKC,0.00,VWS V13.00,2013-06-26 00:08:00,
2013-06-25 18:13:00,74.8,36.7,29.91,North,0,0.0,0.0,25,0.00,,SKC,0.00,VWS V13.00,2013-06-26 00:13:00,
2013-06-25 18:18:00,75.0,37.8,29.91,North,0,0.0,0.0,26,0.00,,SKC,0.00,VWS V13.00,2013-06-26 00:18:00,
2013-06-25 18:23:00,74.8,37.7,29.91,North,0,0.0,0.0,26,0.00,,SKC,0.00,VWS V13.00,2013-06-26 00:23:00,
2013-06-25 18:28:00,74.5,36.4,29.91,North,0,0.0,0.0,25,0.00,,SKC,0.00,VWS V13.00,2013-06-26 00:28:00,
2013-06-25 18:33:00,74.7,37.5,29.91,North,0,0.0,0.0,26,0.00,,SKC,0.00,VWS V13.00,2013-06-26 00:33:00,
2013-06-25 18:38:00,74.5,37.4,29.91,North,0,0.0,0.0,26,0.00,,SKC,0.00,VWS V13.00,2013-06-26 00:38:00,
2013-06-25 18:43:00,74.5,38.3,29.91,North,0,0.0,0.0,27,0.00,,SKC,0.00,VWS V13.00,2013-06-26 00:43:00,
2013-06-25 18:48:00,74.3,37.2,29.91,North,0,0.0,0.0,26,0.00,,SKC,0.00,VWS V13.00,2013-06-26 00:48:00,
2013-06-25 18:53:00,74.3,39.1,29.91,North,0,0.0,0.0,28,0.00,,SKC,0.00,VWS V13.00,2013-06-26 00:53:00,
2013-06-25 18:58:00,73.9,35.9,29.91,North,0,0.0,0.0,25,0.00,,SKC,0.00,VWS V13.00,2013-06-26 00:58:00,
2013-06-25 19:03:00,73.6,37.6,29.91,North,0,0.0,0.0,27,0.00,,SKC,0.00,VWS V13.00,2013-06-26 01:03:00,
2013-06-25 19:08:00,73.4,37.4,29.91,North,0,0.0,0.0,27,0.00,,SKC,0.00,VWS V13.00,2013-06-26 01:08:00,
2013-06-25 19:13:00,73.4,37.4,29.91,North,0,0.0,0.0,27,0.00,,SKC,0.00,VWS V13.00,2013-06-26 01:13:00,
2013-06-25 19:18:00,73.2,37.3,29.91,North,0,0.0,0.0,27,0.00,,SKC,0.00,VWS V13.00,2013-06-26 01:18:00,
2013-06-25 19:23:00,73.0,38.0,29.91,North,0,0.0,0.0,28,0.00,,SKC,0.00,VWS V13.00,2013-06-26 01:23:00,
2013-06-25 19:28:00,72.5,37.6,29.91,North,0,0.0,0.0,28,0.00,,SKC,0.00,VWS V13.00,2013-06-26 01:28:00,
2013-06-25 19:33:00,72.1,37.3,29.91,North,0,0.0,0.0,28,0.00,,SKC,0.00,VWS V13.00,2013-06-26 01:33:00,
2013-06-25 19:38:00,71.8,37.8,29.91,North,0,0.0,0.0,29,0.00,,SKC,0.00,VWS V13.00,2013-06-26 01:38:00,
2013-06-25 19:43:00,71.2,37.4,29.91,North,0,0.0,0.0,29,0.00,,SKC,0.00,VWS V13.00,2013-06-26 01:43:00,
2013-06-25 19:48:00,70.7,39.4,29.91,North,0,0.0,0.0,32,0.00,,SKC,0.00,VWS V13.00,2013-06-26 01:48:00,
2013-06-25 19:53:00,70.3,39.1,29.91,North,0,0.0,0.0,32,0.00,,SKC,0.00,VWS V13.00,2013-06-26 01:53:00,
2013-06-25 19:59:00,69.8,40.2,29.91,North,0,0.0,0.0,34,0.00,,SKC,0.00,VWS V13.00,2013-06-26 01:59:00,
2013-06-25 20:04:00,69.3,40.5,29.91,North,0,0.0,0.0,35,0.00,,SKC,0.00,VWS V13.00,2013-06-26 02:04:00,
2013-06-25 20:09:00,68.7,41.4,29.91,North,0,0.0,0.0,37,0.00,,SKC,0.00,VWS V13.00,2013-06-26 02:09:00,
2013-06-25 20:14:00,68.2,41.6,29.91,North,0,0.0,0.0,38,0.00,,SKC,0.00,VWS V13.00,2013-06-26 02:14:00,
2013-06-25 20:19:00,67.8,42.0,29.91,North,0,0.0,0.0,39,0.00,,SKC,0.00,VWS V13.00,2013-06-26 02:19:00,
2013-06-25 20:24:00,67.3,42.8,29.91,North,0,0.0,0.0,41,0.00,,SKC,0.00,VWS V13.00,2013-06-26 02:24:00,
2013-06-25 20:29:00,66.7,42.3,29.91,North,0,0.0,0.0,41,0.00,,SKC,0.00,VWS V13.00,2013-06-26 02:29:00,
2013-06-25 20:34:00,66.2,42.5,29.91,North,0,0.0,0.0,42,0.00,,SKC,0.00,VWS V13.00,2013-06-26 02:34:00,
2013-06-25 20:39:00,65.5,42.4,29.91,North,0,0.0,0.0,43,0.00,,SKC,0.00,VWS V13.00,2013-06-26 02:39:00,
2013-06-25 20:44:00,64.9,42.5,29.91,North,0,0.0,0.0,44,0.00,,SKC,0.00,VWS V13.00,2013-06-26 02:44:00,
2013-06-25 20:49:00,64.4,42.0,29.91,North,0,0.0,0.0,44,0.00,,SKC,0.00,VWS V13.00,2013-06-26 02:49:00,
2013-06-25 20:54:00,63.9,42.1,29.91,North,0,0.0,0.0,45,0.00,,SKC,0.00,VWS V13.00,2013-06-26 02:54:00,
2013-06-25 20:59:00,63.3,41.1,29.91,North,0,0.0,0.0,44,0.00,,SKC,0.00,VWS V13.00,2013-06-26 02:59:00,
2013-06-25 21:04:00,63.0,41.3,29.91,North,0,0.0,0.0,45,0.00,,SKC,0.00,VWS V13.00,2013-06-26 03:04:00,
2013-06-25 21:09:00,62.6,41.0,29.91,North,0,0.0,0.0,45,0.00,,SKC,0.00,VWS V13.00,2013-06-26 03:09:00,
2013-06-25 21:14:00,62.2,41.2,29.91,North,0,0.0,0.0,46,0.00,,SKC,0.00,VWS V13.00,2013-06-26 03:14:00,
2013-06-25 21:19:00,61.7,41.3,29.91,North,0,0.0,0.0,47,0.00,,SKC,0.00,VWS V13.00,2013-06-26 03:19:00,
2013-06-25 21:24:00,61.2,40.8,29.91,North,0,0.0,0.0,47,0.00,,SKC,0.00,VWS V13.00,2013-06-26 03:24:00,
2013-06-25 21:29:00,60.6,40.8,29.91,North,0,0.0,0.0,48,0.00,,SKC,0.00,VWS V13.00,2013-06-26 03:29:00,
2013-06-25 21:34:00,60.4,40.7,29.91,North,0,0.0,0.0,48,0.00,,SKC,0.00,VWS V13.00,2013-06-26 03:34:00,
2013-06-25 21:39:00,60.1,39.8,29.91,North,0,0.0,0.0,47,0.00,,SKC,0.00,VWS V13.00,2013-06-26 03:39:00,
2013-06-25 21:44:00,59.7,39.5,29.91,North,0,0.0,0.0,47,0.00,,SKC,0.00,VWS V13.00,2013-06-26 03:44:00,
2013-06-25 21:49:00,59.5,39.8,29.91,North,0,0.0,0.0,48,0.00,,SKC,0.00,VWS V13.00,2013-06-26 03:49:00,
2013-06-25 21:54:00,59.2,39.5,29.91,North,0,0.0,0.0,48,0.00,,SKC,0.00,VWS V13.00,2013-06-26 03:54:00,
2013-06-25 21:59:00,58.8,39.2,29.91,North,0,0.0,0.0,48,0.00,,SKC,0.00,VWS V13.00,2013-06-26 03:59:00,
2013-06-25 22:01:00,58.8,39.2,29.91,North,0,0.0,0.0,48,0.00,,SKC,0.00,VWS V13.00,2013-06-26 04:01:00,
2013-06-25 22:02:00,58.8,39.7,29.91,North,0,0.0,0.0,49,0.00,,SKC,0.00,VWS V13.00,2013-06-26 04:02:00,
2013-06-25 22:03:00,58.8,39.7,29.91,North,0,0.0,0.0,49,0.00,,SKC,0.00,VWS V13.00,2013-06-26 04:03:00,
2013-06-25 22:08:00,58.5,38.9,29.91,North,0,0.0,0.0,48,0.00,,SKC,0.00,VWS V13.00,2013-06-26 04:08:00,
2013-06-25 22:13:00,58.3,39.2,29.91,North,0,0.0,0.0,49,0.00,,SKC,0.00,VWS V13.00,2013-06-26 04:13:00,
2013-06-25 22:18:00,58.1,39.1,29.91,North,0,0.0,0.0,49,0.00,,SKC,0.00,VWS V13.00,2013-06-26 04:18:00,
2013-06-25 22:23:00,57.9,38.9,29.91,North,0,0.0,0.0,49,0.00,,SKC,0.00,VWS V13.00,2013-06-26 04:23:00,
2013-06-25 22:28:00,57.7,38.2,29.93,North,0,0.0,0.0,48,0.00,,SKC,0.00,VWS V13.00,2013-06-26 04:28:00,
2013-06-25 22:33:00,57.6,38.0,29.93,North,0,0.0,0.0,48,0.00,,SKC,0.00,VWS V13.00,2013-06-26 04:33:00,
2013-06-25 22:38:00,57.4,37.9,29.93,North,0,0.0,0.0,48,0.00,,SKC,0.00,VWS V13.00,2013-06-26 04:38:00,
2013-06-25 22:43:00,57.2,38.2,29.91,North,0,0.0,0.0,49,0.00,,SKC,0.00,VWS V13.00,2013-06-26 04:43:00,
2013-06-25 22:48:00,57.0,38.1,29.91,North,0,0.0,0.0,49,0.00,,SKC,0.00,VWS V13.00,2013-06-26 04:48:00,
2013-06-25 22:53:00,56.8,37.9,29.91,North,0,0.0,0.0,49,0.00,,SKC,0.00,VWS V13.00,2013-06-26 04:53:00,
2013-06-25 22:58:00,56.7,38.2,29.93,North,0,0.0,0.0,50,0.00,,SKC,0.00,VWS V13.00,2013-06-26 04:58:00,
2013-06-25 23:03:00,56.5,38.1,29.93,North,0,0.0,0.0,50,0.00,,SKC,0.00,VWS V13.00,2013-06-26 05:03:00,
2013-06-25 23:08:00,56.3,37.9,29.93,North,0,0.0,0.0,50,0.00,,SKC,0.00,VWS V13.00,2013-06-26 05:08:00,
2013-06-25 23:13:00,56.3,38.4,29.91,North,0,0.0,0.0,51,0.00,,SKC,0.00,VWS V13.00,2013-06-26 05:13:00,
2013-06-25 23:19:00,56.5,38.1,29.91,North,0,0.0,0.0,50,0.00,,SKC,0.00,VWS V13.00,2013-06-26 05:19:00,
2013-06-25 23:24:00,56.5,38.1,29.91,North,0,0.0,0.0,50,0.00,,SKC,0.00,VWS V13.00,2013-06-26 05:24:00,
2013-06-25 23:29:00,56.7,38.8,29.91,North,0,0.0,0.0,51,0.00,,SKC,0.00,VWS V13.00,2013-06-26 05:29:00,
2013-06-25 23:34:00,56.8,38.9,29.91,North,0,0.0,0.0,51,0.00,,SKC,0.00,VWS V13.00,2013-06-26 05:34:00,
2013-06-25 23:39:00,56.8,38.9,29.91,North,0,0.0,0.0,51,0.00,,SKC,0.00,VWS V13.00,2013-06-26 05:39:00,
2013-06-25 23:44:00,56.8,38.4,29.91,North,0,0.0,0.0,50,0.00,,SKC,0.00,VWS V13.00,2013-06-26 05:44:00,
2013-06-25 23:49:00,56.7,38.8,29.91,North,0,0.0,0.0,51,0.00,,SKC,0.00,VWS V13.00,2013-06-26 05:49:00,
2013-06-25 23:54:00,56.5,39.1,29.91,North,0,0.0,0.0,52,0.00,,SKC,0.00,VWS V13.00,2013-06-26 05:54:00,
2013-06-25 23:59:00,56.1,38.8,29.91,North,0,0.0,0.0,52,0.00,,SKC,0.00,VWS V13.00,2013-06-26 05:59:00,